sensor_id;sensor_type;location;lat;lon;timestamp;P1;durP1;ratioP1;P2;durP2;ratioP2
21036;SDS011;10677;50.942;4.028;2023-02-01T00:01:43;19.13;;;5.75;;
21036;SDS011;10677;50.942;4.028;2023-02-01T00:04:08;21.60;;;5.43;;
21036;SDS011;10677;50.942;4.028;2023-02-01T00:06:34;22.17;;;5.57;;
21036;SDS011;10677;50.942;4.028;2023-02-01T00:09:00;18.10;;;4.15;;
21036;SDS011;10677;50.942;4.028;2023-02-01T00:11:26;23.90;;;6.22;;
21036;SDS011;10677;50.942;4.028;2023-02-01T00:13:52;21.38;;;5.13;;
21036;SDS011;10677;50.942;4.028;2023-02-01T00:16:19;17.90;;;4.43;;
21036;SDS011;10677;50.942;4.028;2023-02-01T00:18:47;17.88;;;4.00;;
21036;SDS011;10677;50.942;4.028;2023-02-01T00:21:14;20.20;;;4.47;;
21036;SDS011;10677;50.942;4.028;2023-02-01T00:23:42;20.25;;;4.90;;
21036;SDS011;10677;50.942;4.028;2023-02-01T00:26:10;22.95;;;4.65;;
21036;SDS011;10677;50.942;4.028;2023-02-01T00:28:39;22.70;;;5.55;;
21036;SDS011;10677;50.942;4.028;2023-02-01T00:31:05;18.13;;;3.97;;
21036;SDS011;10677;50.942;4.028;2023-02-01T00:33:31;19.65;;;4.18;;
21036;SDS011;10677;50.942;4.028;2023-02-01T00:35:58;17.83;;;4.28;;
21036;SDS011;10677;50.942;4.028;2023-02-01T00:38:25;16.83;;;3.72;;
21036;SDS011;10677;50.942;4.028;2023-02-01T00:40:51;15.80;;;3.78;;
21036;SDS011;10677;50.942;4.028;2023-02-01T00:43:17;18.92;;;3.78;;
21036;SDS011;10677;50.942;4.028;2023-02-01T00:45:43;16.17;;;3.90;;
21036;SDS011;10677;50.942;4.028;2023-02-01T00:48:09;21.55;;;3.75;;
21036;SDS011;10677;50.942;4.028;2023-02-01T00:50:35;21.83;;;4.32;;
21036;SDS011;10677;50.942;4.028;2023-02-01T00:53:05;24.95;;;4.00;;
21036;SDS011;10677;50.942;4.028;2023-02-01T00:55:31;17.67;;;3.92;;
21036;SDS011;10677;50.942;4.028;2023-02-01T00:57:56;22.27;;;3.80;;
21036;SDS011;10677;50.942;4.028;2023-02-01T01:00:22;19.27;;;4.28;;
21036;SDS011;10677;50.942;4.028;2023-02-01T01:02:48;20.58;;;4.18;;
21036;SDS011;10677;50.942;4.028;2023-02-01T01:05:13;21.58;;;4.25;;
21036;SDS011;10677;50.942;4.028;2023-02-01T01:07:39;16.38;;;3.65;;
21036;SDS011;10677;50.942;4.028;2023-02-01T01:10:06;18.77;;;4.40;;
21036;SDS011;10677;50.942;4.028;2023-02-01T01:12:32;20.58;;;4.00;;
21036;SDS011;10677;50.942;4.028;2023-02-01T01:14:58;18.70;;;4.78;;
21036;SDS011;10677;50.942;4.028;2023-02-01T01:17:23;13.23;;;3.67;;
21036;SDS011;10677;50.942;4.028;2023-02-01T01:19:49;20.67;;;3.72;;
21036;SDS011;10677;50.942;4.028;2023-02-01T01:22:14;19.75;;;4.45;;
21036;SDS011;10677;50.942;4.028;2023-02-01T01:24:40;14.80;;;3.70;;
21036;SDS011;10677;50.942;4.028;2023-02-01T01:27:06;18.67;;;3.83;;
21036;SDS011;10677;50.942;4.028;2023-02-01T01:29:31;20.88;;;4.38;;
21036;SDS011;10677;50.942;4.028;2023-02-01T01:31:57;17.20;;;3.78;;
21036;SDS011;10677;50.942;4.028;2023-02-01T01:34:23;20.17;;;4.28;;
21036;SDS011;10677;50.942;4.028;2023-02-01T01:36:48;20.70;;;4.97;;
21036;SDS011;10677;50.942;4.028;2023-02-01T01:39:14;19.27;;;4.35;;
21036;SDS011;10677;50.942;4.028;2023-02-01T01:41:39;16.70;;;3.90;;
21036;SDS011;10677;50.942;4.028;2023-02-01T01:44:06;21.45;;;4.93;;
21036;SDS011;10677;50.942;4.028;2023-02-01T01:46:51;19.00;;;3.80;;
21036;SDS011;10677;50.942;4.028;2023-02-01T01:49:18;22.33;;;4.63;;
21036;SDS011;10677;50.942;4.028;2023-02-01T01:51:56;18.08;;;4.60;;
21036;SDS011;10677;50.942;4.028;2023-02-01T01:56:59;25.75;;;4.30;;
21036;SDS011;10677;50.942;4.028;2023-02-01T01:59:29;16.00;;;4.53;;
21036;SDS011;10677;50.942;4.028;2023-02-01T02:01:57;17.05;;;4.35;;
21036;SDS011;10677;50.942;4.028;2023-02-01T02:04:23;17.02;;;4.00;;
21036;SDS011;10677;50.942;4.028;2023-02-01T02:06:50;23.25;;;4.38;;
21036;SDS011;10677;50.942;4.028;2023-02-01T02:09:23;18.58;;;4.30;;
21036;SDS011;10677;50.942;4.028;2023-02-01T02:11:48;24.80;;;5.47;;
21036;SDS011;10677;50.942;4.028;2023-02-01T02:14:15;17.23;;;4.57;;
21036;SDS011;10677;50.942;4.028;2023-02-01T02:25:26;16.23;;;4.63;;
21036;SDS011;10677;50.942;4.028;2023-02-01T02:39:04;22.02;;;5.63;;
21036;SDS011;10677;50.942;4.028;2023-02-01T02:48:13;14.80;;;3.35;;
21036;SDS011;10677;50.942;4.028;2023-02-01T02:51:07;15.73;;;4.10;;
21036;SDS011;10677;50.942;4.028;2023-02-01T02:54:08;18.17;;;3.95;;
21036;SDS011;10677;50.942;4.028;2023-02-01T02:56:56;23.70;;;4.13;;
21036;SDS011;10677;50.942;4.028;2023-02-01T02:59:42;17.58;;;3.35;;
21036;SDS011;10677;50.942;4.028;2023-02-01T03:02:27;18.27;;;4.07;;
21036;SDS011;10677;50.942;4.028;2023-02-01T03:05:13;17.65;;;3.47;;
21036;SDS011;10677;50.942;4.028;2023-02-01T03:12:53;20.50;;;4.20;;
21036;SDS011;10677;50.942;4.028;2023-02-01T03:15:30;16.90;;;4.25;;
21036;SDS011;10677;50.942;4.028;2023-02-01T03:18:04;15.80;;;3.50;;
21036;SDS011;10677;50.942;4.028;2023-02-01T03:20:37;24.17;;;5.40;;
21036;SDS011;10677;50.942;4.028;2023-02-01T03:23:07;22.33;;;4.22;;
21036;SDS011;10677;50.942;4.028;2023-02-01T03:25:34;18.60;;;4.38;;
21036;SDS011;10677;50.942;4.028;2023-02-01T03:28:02;21.13;;;4.60;;
21036;SDS011;10677;50.942;4.028;2023-02-01T03:30:34;22.75;;;3.72;;
21036;SDS011;10677;50.942;4.028;2023-02-01T03:33:03;24.20;;;3.90;;
21036;SDS011;10677;50.942;4.028;2023-02-01T03:35:39;20.08;;;3.55;;
21036;SDS011;10677;50.942;4.028;2023-02-01T03:38:12;24.45;;;3.67;;
21036;SDS011;10677;50.942;4.028;2023-02-01T03:41:09;19.92;;;4.53;;
21036;SDS011;10677;50.942;4.028;2023-02-01T03:43:43;16.02;;;3.58;;
21036;SDS011;10677;50.942;4.028;2023-02-01T03:46:17;21.02;;;4.05;;
21036;SDS011;10677;50.942;4.028;2023-02-01T03:48:50;24.92;;;4.38;;
21036;SDS011;10677;50.942;4.028;2023-02-01T03:51:19;22.10;;;3.85;;
21036;SDS011;10677;50.942;4.028;2023-02-01T03:53:46;24.58;;;5.00;;
21036;SDS011;10677;50.942;4.028;2023-02-01T03:56:14;23.65;;;5.40;;
21036;SDS011;10677;50.942;4.028;2023-02-01T03:58:42;15.85;;;3.20;;
21036;SDS011;10677;50.942;4.028;2023-02-01T04:01:22;19.13;;;4.07;;
21036;SDS011;10677;50.942;4.028;2023-02-01T04:03:48;22.98;;;4.07;;
21036;SDS011;10677;50.942;4.028;2023-02-01T04:06:16;22.48;;;4.28;;
21036;SDS011;10677;50.942;4.028;2023-02-01T04:08:42;19.50;;;3.72;;
21036;SDS011;10677;50.942;4.028;2023-02-01T04:11:07;22.42;;;3.95;;
21036;SDS011;10677;50.942;4.028;2023-02-01T04:13:33;23.60;;;4.45;;
21036;SDS011;10677;50.942;4.028;2023-02-01T04:15:58;22.40;;;4.47;;
21036;SDS011;10677;50.942;4.028;2023-02-01T04:18:24;19.05;;;4.03;;
21036;SDS011;10677;50.942;4.028;2023-02-01T04:20:50;24.30;;;3.65;;
21036;SDS011;10677;50.942;4.028;2023-02-01T04:23:15;19.70;;;3.15;;
21036;SDS011;10677;50.942;4.028;2023-02-01T04:25:41;14.88;;;3.83;;
21036;SDS011;10677;50.942;4.028;2023-02-01T04:28:06;27.20;;;4.43;;
21036;SDS011;10677;50.942;4.028;2023-02-01T04:30:32;18.83;;;3.58;;
21036;SDS011;10677;50.942;4.028;2023-02-01T04:32:58;23.73;;;3.75;;
21036;SDS011;10677;50.942;4.028;2023-02-01T04:35:23;19.88;;;4.28;;
21036;SDS011;10677;50.942;4.028;2023-02-01T04:37:49;16.08;;;3.33;;
21036;SDS011;10677;50.942;4.028;2023-02-01T04:40:15;18.10;;;4.13;;
21036;SDS011;10677;50.942;4.028;2023-02-01T04:42:40;18.58;;;4.10;;
21036;SDS011;10677;50.942;4.028;2023-02-01T04:45:06;25.52;;;4.00;;
21036;SDS011;10677;50.942;4.028;2023-02-01T04:47:33;21.98;;;3.72;;
21036;SDS011;10677;50.942;4.028;2023-02-01T04:49:59;19.35;;;3.70;;
21036;SDS011;10677;50.942;4.028;2023-02-01T04:52:25;18.98;;;3.85;;
21036;SDS011;10677;50.942;4.028;2023-02-01T04:54:52;17.90;;;3.70;;
21036;SDS011;10677;50.942;4.028;2023-02-01T04:57:19;24.52;;;4.97;;
21036;SDS011;10677;50.942;4.028;2023-02-01T04:59:45;22.38;;;4.53;;
21036;SDS011;10677;50.942;4.028;2023-02-01T05:02:13;17.48;;;3.50;;
21036;SDS011;10677;50.942;4.028;2023-02-01T05:04:39;20.05;;;3.80;;
21036;SDS011;10677;50.942;4.028;2023-02-01T05:07:04;19.23;;;4.18;;
21036;SDS011;10677;50.942;4.028;2023-02-01T05:09:30;20.23;;;4.50;;
21036;SDS011;10677;50.942;4.028;2023-02-01T05:11:56;22.83;;;4.20;;
21036;SDS011;10677;50.942;4.028;2023-02-01T05:14:40;20.08;;;4.15;;
21036;SDS011;10677;50.942;4.028;2023-02-01T05:17:06;23.25;;;4.28;;
21036;SDS011;10677;50.942;4.028;2023-02-01T05:19:31;20.80;;;3.53;;
21036;SDS011;10677;50.942;4.028;2023-02-01T05:21:57;25.88;;;5.00;;
21036;SDS011;10677;50.942;4.028;2023-02-01T05:24:22;16.10;;;4.00;;
21036;SDS011;10677;50.942;4.028;2023-02-01T05:26:48;16.45;;;2.85;;
21036;SDS011;10677;50.942;4.028;2023-02-01T05:29:14;23.83;;;3.63;;
21036;SDS011;10677;50.942;4.028;2023-02-01T05:31:42;20.48;;;4.65;;
21036;SDS011;10677;50.942;4.028;2023-02-01T05:34:10;17.80;;;3.92;;
21036;SDS011;10677;50.942;4.028;2023-02-01T05:36:36;24.17;;;4.70;;
21036;SDS011;10677;50.942;4.028;2023-02-01T05:39:02;18.15;;;3.83;;
21036;SDS011;10677;50.942;4.028;2023-02-01T05:41:27;23.23;;;4.47;;
21036;SDS011;10677;50.942;4.028;2023-02-01T05:43:53;24.50;;;4.60;;
21036;SDS011;10677;50.942;4.028;2023-02-01T05:46:19;21.40;;;3.83;;
21036;SDS011;10677;50.942;4.028;2023-02-01T05:48:44;21.50;;;4.00;;
21036;SDS011;10677;50.942;4.028;2023-02-01T05:51:12;23.48;;;4.35;;
21036;SDS011;10677;50.942;4.028;2023-02-01T05:53:38;16.92;;;3.38;;
21036;SDS011;10677;50.942;4.028;2023-02-01T05:56:04;21.05;;;4.97;;
21036;SDS011;10677;50.942;4.028;2023-02-01T05:58:30;21.02;;;3.88;;
21036;SDS011;10677;50.942;4.028;2023-02-01T06:00:56;20.55;;;3.03;;
21036;SDS011;10677;50.942;4.028;2023-02-01T06:03:25;20.38;;;4.05;;
21036;SDS011;10677;50.942;4.028;2023-02-01T06:05:51;24.65;;;3.85;;
21036;SDS011;10677;50.942;4.028;2023-02-01T06:08:17;19.20;;;3.15;;
21036;SDS011;10677;50.942;4.028;2023-02-01T06:10:42;27.27;;;4.10;;
21036;SDS011;10677;50.942;4.028;2023-02-01T06:13:08;28.08;;;4.85;;
21036;SDS011;10677;50.942;4.028;2023-02-01T06:15:34;19.45;;;4.18;;
21036;SDS011;10677;50.942;4.028;2023-02-01T06:18:00;27.85;;;4.03;;
21036;SDS011;10677;50.942;4.028;2023-02-01T06:20:26;30.20;;;4.40;;
21036;SDS011;10677;50.942;4.028;2023-02-01T06:22:51;17.45;;;4.00;;
21036;SDS011;10677;50.942;4.028;2023-02-01T06:25:17;20.63;;;3.60;;
21036;SDS011;10677;50.942;4.028;2023-02-01T06:27:44;20.83;;;4.10;;
21036;SDS011;10677;50.942;4.028;2023-02-01T06:30:10;16.75;;;3.85;;
21036;SDS011;10677;50.942;4.028;2023-02-01T06:32:40;23.38;;;3.88;;
21036;SDS011;10677;50.942;4.028;2023-02-01T06:35:09;22.38;;;4.38;;
21036;SDS011;10677;50.942;4.028;2023-02-01T06:37:41;22.13;;;4.30;;
21036;SDS011;10677;50.942;4.028;2023-02-01T06:40:07;33.22;;;5.60;;
21036;SDS011;10677;50.942;4.028;2023-02-01T06:42:33;24.40;;;3.90;;
21036;SDS011;10677;50.942;4.028;2023-02-01T06:44:59;22.17;;;3.67;;
21036;SDS011;10677;50.942;4.028;2023-02-01T06:47:25;25.63;;;4.22;;
21036;SDS011;10677;50.942;4.028;2023-02-01T06:49:50;21.17;;;4.78;;
21036;SDS011;10677;50.942;4.028;2023-02-01T06:52:17;25.48;;;4.55;;
21036;SDS011;10677;50.942;4.028;2023-02-01T06:54:43;19.90;;;4.20;;
21036;SDS011;10677;50.942;4.028;2023-02-01T06:57:08;20.80;;;3.88;;
21036;SDS011;10677;50.942;4.028;2023-02-01T06:59:35;19.75;;;3.80;;
21036;SDS011;10677;50.942;4.028;2023-02-01T07:02:01;20.65;;;4.00;;
21036;SDS011;10677;50.942;4.028;2023-02-01T07:04:27;19.83;;;3.97;;
21036;SDS011;10677;50.942;4.028;2023-02-01T07:06:52;18.13;;;3.13;;
21036;SDS011;10677;50.942;4.028;2023-02-01T07:09:18;26.77;;;4.22;;
21036;SDS011;10677;50.942;4.028;2023-02-01T07:11:43;27.55;;;4.60;;
21036;SDS011;10677;50.942;4.028;2023-02-01T07:14:10;23.85;;;4.53;;
21036;SDS011;10677;50.942;4.028;2023-02-01T07:16:35;21.75;;;3.75;;
21036;SDS011;10677;50.942;4.028;2023-02-01T07:19:01;28.60;;;4.45;;
21036;SDS011;10677;50.942;4.028;2023-02-01T07:21:27;24.67;;;4.20;;
21036;SDS011;10677;50.942;4.028;2023-02-01T07:23:54;22.40;;;4.15;;
21036;SDS011;10677;50.942;4.028;2023-02-01T07:26:21;22.00;;;3.88;;
21036;SDS011;10677;50.942;4.028;2023-02-01T07:28:47;18.77;;;4.05;;
21036;SDS011;10677;50.942;4.028;2023-02-01T07:31:14;20.08;;;4.20;;
21036;SDS011;10677;50.942;4.028;2023-02-01T07:33:43;23.27;;;4.03;;
21036;SDS011;10677;50.942;4.028;2023-02-01T07:36:13;21.50;;;4.47;;
21036;SDS011;10677;50.942;4.028;2023-02-01T07:38:41;27.00;;;4.72;;
21036;SDS011;10677;50.942;4.028;2023-02-01T07:41:08;27.35;;;4.15;;
21036;SDS011;10677;50.942;4.028;2023-02-01T07:43:34;20.83;;;3.83;;
21036;SDS011;10677;50.942;4.028;2023-02-01T07:46:01;22.55;;;4.78;;
21036;SDS011;10677;50.942;4.028;2023-02-01T07:48:28;21.92;;;4.53;;
21036;SDS011;10677;50.942;4.028;2023-02-01T07:50:58;28.02;;;4.40;;
21036;SDS011;10677;50.942;4.028;2023-02-01T07:53:29;18.35;;;5.13;;
21036;SDS011;10677;50.942;4.028;2023-02-01T07:55:56;25.67;;;4.45;;
21036;SDS011;10677;50.942;4.028;2023-02-01T07:58:23;19.90;;;4.07;;
21036;SDS011;10677;50.942;4.028;2023-02-01T08:00:49;17.98;;;4.22;;
21036;SDS011;10677;50.942;4.028;2023-02-01T08:03:34;19.88;;;4.43;;
21036;SDS011;10677;50.942;4.028;2023-02-01T08:06:00;21.60;;;4.28;;
21036;SDS011;10677;50.942;4.028;2023-02-01T08:08:25;15.13;;;4.00;;
21036;SDS011;10677;50.942;4.028;2023-02-01T08:10:56;23.02;;;4.25;;
21036;SDS011;10677;50.942;4.028;2023-02-01T08:13:25;18.75;;;4.82;;
21036;SDS011;10677;50.942;4.028;2023-02-01T08:15:51;24.77;;;3.90;;
21036;SDS011;10677;50.942;4.028;2023-02-01T08:18:17;18.50;;;4.68;;
21036;SDS011;10677;50.942;4.028;2023-02-01T08:20:44;34.90;;;6.10;;
21036;SDS011;10677;50.942;4.028;2023-02-01T08:23:11;22.52;;;4.55;;
21036;SDS011;10677;50.942;4.028;2023-02-01T08:25:36;19.02;;;4.38;;
21036;SDS011;10677;50.942;4.028;2023-02-01T08:28:08;28.55;;;6.25;;
21036;SDS011;10677;50.942;4.028;2023-02-01T08:30:36;23.52;;;5.75;;
21036;SDS011;10677;50.942;4.028;2023-02-01T08:33:04;22.50;;;4.90;;
21036;SDS011;10677;50.942;4.028;2023-02-01T08:35:37;22.85;;;5.57;;
21036;SDS011;10677;50.942;4.028;2023-02-01T08:38:04;21.65;;;4.70;;
21036;SDS011;10677;50.942;4.028;2023-02-01T08:40:32;16.38;;;3.92;;
21036;SDS011;10677;50.942;4.028;2023-02-01T08:42:58;23.02;;;4.18;;
21036;SDS011;10677;50.942;4.028;2023-02-01T08:45:26;40.17;;;4.30;;
21036;SDS011;10677;50.942;4.028;2023-02-01T08:47:57;17.15;;;4.03;;
21036;SDS011;10677;50.942;4.028;2023-02-01T08:50:23;25.75;;;4.88;;
21036;SDS011;10677;50.942;4.028;2023-02-01T08:52:50;17.35;;;4.20;;
21036;SDS011;10677;50.942;4.028;2023-02-01T08:55:16;16.02;;;4.15;;
21036;SDS011;10677;50.942;4.028;2023-02-01T08:57:42;20.10;;;5.70;;
21036;SDS011;10677;50.942;4.028;2023-02-01T09:00:11;21.92;;;5.20;;
21036;SDS011;10677;50.942;4.028;2023-02-01T09:02:38;22.23;;;4.10;;
21036;SDS011;10677;50.942;4.028;2023-02-01T09:05:04;21.98;;;4.25;;
21036;SDS011;10677;50.942;4.028;2023-02-01T09:07:32;15.35;;;4.00;;
21036;SDS011;10677;50.942;4.028;2023-02-01T09:09:59;19.65;;;4.35;;
21036;SDS011;10677;50.942;4.028;2023-02-01T09:12:28;26.13;;;4.43;;
21036;SDS011;10677;50.942;4.028;2023-02-01T09:14:55;20.95;;;4.45;;
21036;SDS011;10677;50.942;4.028;2023-02-01T09:17:22;19.88;;;4.45;;
21036;SDS011;10677;50.942;4.028;2023-02-01T09:19:48;23.88;;;4.20;;
21036;SDS011;10677;50.942;4.028;2023-02-01T09:22:14;20.95;;;4.80;;
21036;SDS011;10677;50.942;4.028;2023-02-01T09:24:41;17.75;;;4.00;;
21036;SDS011;10677;50.942;4.028;2023-02-01T09:27:07;13.25;;;3.47;;
21036;SDS011;10677;50.942;4.028;2023-02-01T09:29:33;26.15;;;5.00;;
21036;SDS011;10677;50.942;4.028;2023-02-01T09:31:59;18.98;;;3.42;;
21036;SDS011;10677;50.942;4.028;2023-02-01T09:34:25;26.50;;;3.92;;
21036;SDS011;10677;50.942;4.028;2023-02-01T09:36:52;16.30;;;3.65;;
21036;SDS011;10677;50.942;4.028;2023-02-01T09:39:18;23.25;;;4.03;;
21036;SDS011;10677;50.942;4.028;2023-02-01T09:44:31;20.23;;;3.45;;
21036;SDS011;10677;50.942;4.028;2023-02-01T09:47:12;22.10;;;3.38;;
21036;SDS011;10677;50.942;4.028;2023-02-01T09:49:43;16.20;;;3.38;;
21036;SDS011;10677;50.942;4.028;2023-02-01T09:52:15;25.63;;;4.43;;
21036;SDS011;10677;50.942;4.028;2023-02-01T09:54:56;17.95;;;4.15;;
21036;SDS011;10677;50.942;4.028;2023-02-01T09:57:40;22.83;;;3.88;;
21036;SDS011;10677;50.942;4.028;2023-02-01T10:03:18;21.88;;;4.95;;
21036;SDS011;10677;50.942;4.028;2023-02-01T10:28:19;15.55;;;2.95;;
21036;SDS011;10677;50.942;4.028;2023-02-01T10:30:47;19.92;;;3.22;;
21036;SDS011;10677;50.942;4.028;2023-02-01T10:33:18;19.90;;;3.28;;
21036;SDS011;10677;50.942;4.028;2023-02-01T10:35:50;18.88;;;3.45;;
21036;SDS011;10677;50.942;4.028;2023-02-01T10:38:27;11.90;;;3.00;;
21036;SDS011;10677;50.942;4.028;2023-02-01T10:40:56;14.20;;;2.70;;
21036;SDS011;10677;50.942;4.028;2023-02-01T10:43:27;18.83;;;3.28;;
21036;SDS011;10677;50.942;4.028;2023-02-01T10:45:54;17.10;;;2.55;;
21036;SDS011;10677;50.942;4.028;2023-02-01T10:48:20;15.05;;;3.25;;
21036;SDS011;10677;50.942;4.028;2023-02-01T10:50:49;19.92;;;4.07;;
21036;SDS011;10677;50.942;4.028;2023-02-01T10:53:31;19.08;;;3.15;;
21036;SDS011;10677;50.942;4.028;2023-02-01T10:56:19;23.13;;;3.33;;
21036;SDS011;10677;50.942;4.028;2023-02-01T10:58:48;11.43;;;2.20;;
21036;SDS011;10677;50.942;4.028;2023-02-01T11:01:28;15.13;;;2.60;;
21036;SDS011;10677;50.942;4.028;2023-02-01T11:04:01;20.52;;;4.15;;
21036;SDS011;10677;50.942;4.028;2023-02-01T11:06:38;20.30;;;3.92;;
21036;SDS011;10677;50.942;4.028;2023-02-01T11:19:26;17.85;;;2.80;;
21036;SDS011;10677;50.942;4.028;2023-02-01T11:21:53;14.82;;;2.30;;
21036;SDS011;10677;50.942;4.028;2023-02-01T11:24:25;14.90;;;2.53;;
21036;SDS011;10677;50.942;4.028;2023-02-01T11:26:55;10.32;;;2.22;;
21036;SDS011;10677;50.942;4.028;2023-02-01T11:29:21;21.48;;;2.88;;
21036;SDS011;10677;50.942;4.028;2023-02-01T11:31:55;19.80;;;2.30;;
21036;SDS011;10677;50.942;4.028;2023-02-01T11:34:24;11.88;;;2.40;;
21036;SDS011;10677;50.942;4.028;2023-02-01T11:36:54;9.93;;;2.33;;
21036;SDS011;10677;50.942;4.028;2023-02-01T11:39:25;15.23;;;2.58;;
21036;SDS011;10677;50.942;4.028;2023-02-01T11:42:11;8.48;;;1.58;;
21036;SDS011;10677;50.942;4.028;2023-02-01T11:44:42;14.88;;;1.85;;
21036;SDS011;10677;50.942;4.028;2023-02-01T11:47:31;16.55;;;2.60;;
21036;SDS011;10677;50.942;4.028;2023-02-01T11:50:08;14.30;;;2.30;;
21036;SDS011;10677;50.942;4.028;2023-02-01T12:06:46;10.40;;;2.60;;
21036;SDS011;10677;50.942;4.028;2023-02-01T12:12:18;12.55;;;2.00;;
21036;SDS011;10677;50.942;4.028;2023-02-01T12:18:05;8.00;;;1.45;;
21036;SDS011;10677;50.942;4.028;2023-02-01T12:21:13;13.57;;;2.15;;
21036;SDS011;10677;50.942;4.028;2023-02-01T12:24:39;8.60;;;1.63;;
21036;SDS011;10677;50.942;4.028;2023-02-01T12:30:03;9.75;;;2.58;;
21036;SDS011;10677;50.942;4.028;2023-02-01T12:32:48;12.40;;;1.80;;
21036;SDS011;10677;50.942;4.028;2023-02-01T12:38:20;13.65;;;1.73;;
21036;SDS011;10677;50.942;4.028;2023-02-01T12:41:06;16.75;;;2.28;;
21036;SDS011;10677;50.942;4.028;2023-02-01T12:49:12;9.68;;;1.75;;
21036;SDS011;10677;50.942;4.028;2023-02-01T12:51:46;7.15;;;1.63;;
21036;SDS011;10677;50.942;4.028;2023-02-01T12:59:31;8.45;;;1.65;;
21036;SDS011;10677;50.942;4.028;2023-02-01T13:02:28;10.32;;;1.95;;
21036;SDS011;10677;50.942;4.028;2023-02-01T13:05:22;9.52;;;1.77;;
21036;SDS011;10677;50.942;4.028;2023-02-01T13:07:59;11.68;;;1.88;;
21036;SDS011;10677;50.942;4.028;2023-02-01T13:13:23;11.48;;;1.77;;
21036;SDS011;10677;50.942;4.028;2023-02-01T13:18:23;10.00;;;1.90;;
21036;SDS011;10677;50.942;4.028;2023-02-01T13:23:34;10.13;;;1.77;;
21036;SDS011;10677;50.942;4.028;2023-02-01T13:26:03;10.93;;;2.20;;
21036;SDS011;10677;50.942;4.028;2023-02-01T13:28:30;9.77;;;2.03;;
21036;SDS011;10677;50.942;4.028;2023-02-01T13:42:11;10.27;;;1.98;;
21036;SDS011;10677;50.942;4.028;2023-02-01T13:44:46;9.57;;;1.38;;
21036;SDS011;10677;50.942;4.028;2023-02-01T13:50:01;8.60;;;1.85;;
21036;SDS011;10677;50.942;4.028;2023-02-01T13:52:51;11.95;;;2.47;;
21036;SDS011;10677;50.942;4.028;2023-02-01T13:55:41;9.68;;;1.88;;
21036;SDS011;10677;50.942;4.028;2023-02-01T13:58:13;10.25;;;1.70;;
21036;SDS011;10677;50.942;4.028;2023-02-01T14:00:43;7.20;;;1.58;;
21036;SDS011;10677;50.942;4.028;2023-02-01T14:03:42;7.88;;;1.85;;
21036;SDS011;10677;50.942;4.028;2023-02-01T14:06:16;9.65;;;2.05;;
21036;SDS011;10677;50.942;4.028;2023-02-01T14:11:40;12.45;;;2.03;;
21036;SDS011;10677;50.942;4.028;2023-02-01T14:14:51;12.75;;;1.85;;
21036;SDS011;10677;50.942;4.028;2023-02-01T14:19:21;10.68;;;1.90;;
21036;SDS011;10677;50.942;4.028;2023-02-01T14:21:58;9.48;;;2.13;;
21036;SDS011;10677;50.942;4.028;2023-02-01T14:24:43;7.30;;;1.95;;
21036;SDS011;10677;50.942;4.028;2023-02-01T14:27:18;10.55;;;2.17;;
21036;SDS011;10677;50.942;4.028;2023-02-01T14:29:51;13.30;;;1.90;;
21036;SDS011;10677;50.942;4.028;2023-02-01T14:32:30;10.25;;;2.30;;
21036;SDS011;10677;50.942;4.028;2023-02-01T14:35:00;11.30;;;2.22;;
21036;SDS011;10677;50.942;4.028;2023-02-01T14:37:31;12.75;;;2.42;;
21036;SDS011;10677;50.942;4.028;2023-02-01T15:06:20;7.57;;;2.08;;
21036;SDS011;10677;50.942;4.028;2023-02-01T15:09:17;10.77;;;2.35;;
21036;SDS011;10677;50.942;4.028;2023-02-01T15:11:54;10.48;;;2.33;;
21036;SDS011;10677;50.942;4.028;2023-02-01T15:14:23;11.95;;;2.00;;
21036;SDS011;10677;50.942;4.028;2023-02-01T15:16:49;9.75;;;2.20;;
21036;SDS011;10677;50.942;4.028;2023-02-01T15:19:19;14.25;;;2.25;;
21036;SDS011;10677;50.942;4.028;2023-02-01T15:21:49;17.05;;;2.47;;
21036;SDS011;10677;50.942;4.028;2023-02-01T15:24:27;22.73;;;2.33;;
21036;SDS011;10677;50.942;4.028;2023-02-01T15:26:54;13.18;;;2.33;;
21036;SDS011;10677;50.942;4.028;2023-02-01T15:29:28;14.02;;;3.33;;
21036;SDS011;10677;50.942;4.028;2023-02-01T15:31:57;14.05;;;3.13;;
21036;SDS011;10677;50.942;4.028;2023-02-01T15:34:23;15.93;;;2.80;;
21036;SDS011;10677;50.942;4.028;2023-02-01T15:37:12;13.68;;;2.78;;
21036;SDS011;10677;50.942;4.028;2023-02-01T15:40:02;15.75;;;2.30;;
21036;SDS011;10677;50.942;4.028;2023-02-01T15:42:57;11.40;;;2.28;;
21036;SDS011;10677;50.942;4.028;2023-02-01T15:45:29;14.43;;;2.58;;
21036;SDS011;10677;50.942;4.028;2023-02-01T15:47:57;13.68;;;2.92;;
21036;SDS011;10677;50.942;4.028;2023-02-01T15:50:24;17.55;;;2.45;;
21036;SDS011;10677;50.942;4.028;2023-02-01T15:52:52;11.80;;;2.28;;
21036;SDS011;10677;50.942;4.028;2023-02-01T15:55:21;16.98;;;3.17;;
21036;SDS011;10677;50.942;4.028;2023-02-01T15:58:04;16.92;;;2.97;;
21036;SDS011;10677;50.942;4.028;2023-02-01T16:00:43;11.40;;;3.03;;
21036;SDS011;10677;50.942;4.028;2023-02-01T16:03:25;18.60;;;4.40;;
21036;SDS011;10677;50.942;4.028;2023-02-01T16:06:05;22.35;;;4.70;;
21036;SDS011;10677;50.942;4.028;2023-02-01T16:08:33;17.38;;;3.30;;
21036;SDS011;10677;50.942;4.028;2023-02-01T16:11:19;22.42;;;3.08;;
21036;SDS011;10677;50.942;4.028;2023-02-01T16:13:55;17.67;;;3.60;;
21036;SDS011;10677;50.942;4.028;2023-02-01T16:16:21;17.08;;;3.35;;
21036;SDS011;10677;50.942;4.028;2023-02-01T16:18:46;13.52;;;2.70;;
21036;SDS011;10677;50.942;4.028;2023-02-01T16:21:12;17.67;;;3.28;;
21036;SDS011;10677;50.942;4.028;2023-02-01T16:23:38;16.73;;;2.88;;
21036;SDS011;10677;50.942;4.028;2023-02-01T16:26:04;18.00;;;3.42;;
21036;SDS011;10677;50.942;4.028;2023-02-01T16:28:31;18.35;;;2.90;;
21036;SDS011;10677;50.942;4.028;2023-02-01T16:30:57;15.32;;;3.00;;
21036;SDS011;10677;50.942;4.028;2023-02-01T16:33:23;19.65;;;3.65;;
21036;SDS011;10677;50.942;4.028;2023-02-01T16:35:50;21.15;;;3.55;;
21036;SDS011;10677;50.942;4.028;2023-02-01T16:38:17;17.55;;;3.25;;
21036;SDS011;10677;50.942;4.028;2023-02-01T16:40:46;15.95;;;3.20;;
21036;SDS011;10677;50.942;4.028;2023-02-01T16:43:13;17.55;;;3.22;;
21036;SDS011;10677;50.942;4.028;2023-02-01T16:45:44;14.85;;;3.78;;
21036;SDS011;10677;50.942;4.028;2023-02-01T16:48:18;16.00;;;3.95;;
21036;SDS011;10677;50.942;4.028;2023-02-01T16:51:00;20.92;;;4.88;;
21036;SDS011;10677;50.942;4.028;2023-02-01T16:53:31;22.05;;;3.50;;
21036;SDS011;10677;50.942;4.028;2023-02-01T16:55:57;18.65;;;6.22;;
21036;SDS011;10677;50.942;4.028;2023-02-01T16:58:24;24.50;;;4.28;;
21036;SDS011;10677;50.942;4.028;2023-02-01T17:00:50;14.20;;;3.40;;
21036;SDS011;10677;50.942;4.028;2023-02-01T17:03:17;17.20;;;3.63;;
21036;SDS011;10677;50.942;4.028;2023-02-01T17:05:44;16.95;;;3.63;;
21036;SDS011;10677;50.942;4.028;2023-02-01T17:08:19;22.65;;;4.03;;
21036;SDS011;10677;50.942;4.028;2023-02-01T17:10:52;19.85;;;3.33;;
21036;SDS011;10677;50.942;4.028;2023-02-01T17:13:18;17.80;;;3.50;;
21036;SDS011;10677;50.942;4.028;2023-02-01T17:15:46;15.75;;;3.15;;
21036;SDS011;10677;50.942;4.028;2023-02-01T17:18:22;18.88;;;3.95;;
21036;SDS011;10677;50.942;4.028;2023-02-01T17:20:49;25.15;;;3.88;;
21036;SDS011;10677;50.942;4.028;2023-02-01T17:23:17;25.77;;;4.25;;
21036;SDS011;10677;50.942;4.028;2023-02-01T17:25:43;20.80;;;3.90;;
21036;SDS011;10677;50.942;4.028;2023-02-01T17:28:10;13.98;;;3.17;;
21036;SDS011;10677;50.942;4.028;2023-02-01T17:30:36;20.25;;;4.35;;
21036;SDS011;10677;50.942;4.028;2023-02-01T17:33:03;22.60;;;3.38;;
21036;SDS011;10677;50.942;4.028;2023-02-01T17:35:29;19.48;;;4.15;;
21036;SDS011;10677;50.942;4.028;2023-02-01T17:37:56;22.17;;;3.63;;